Estherville, Iowa
Current Conditions -  °F | °C
As of 3:52 AM on Monday 20 Oct 2014 (Local Time) from KEST Reporting Station
Clear Clear  
Wind Chill:   Ceiling: Unl
Heat Index:   Visibility: 10mi
Dew Point:   Wind: 9mph
Humidity: 82%   Direction: 310°NW
Pressure: 29.97"   Gusts: NA
Location:  43.4°N, 94.84°W
Report Text: KEST 200852Z AUTO 31008KT 10SM CLR 06/03 A2997 RMK AO2 SLP148 T00560028 51007
Loading
Personal Weather Stations






























Interactive Weather Map New forecast layout! Learn more

10-Day Weather Forecast

Advertisements
Track Severe Weather on mobile